RJAK(METAR)
04/28 17:00
METAR RJAK 280800Z 07009KT 9999 FEW025 17/11 Q1005 RMK 1CU025 A2970=
戻る
トップページへ戻る
IMOC Co,.Ltd.